sensor_id;sensor_type;location;lat;lon;timestamp;pressure;altitude;pressure_sealevel;temperature;humidity
24746;BME280;12845;52.042;6.838;2023-07-29T00:00:35;-18616.38;;;21.94;100.00
24746;BME280;12845;52.042;6.838;2023-07-29T00:03:01;-18614.88;;;21.88;100.00
24746;BME280;12845;52.042;6.838;2023-07-29T00:05:26;-18613.94;;;21.84;100.00
24746;BME280;12845;52.042;6.838;2023-07-29T00:07:52;-18614.34;;;21.86;100.00
24746;BME280;12845;52.042;6.838;2023-07-29T00:10:17;-18614.59;;;21.87;100.00
24746;BME280;12845;52.042;6.838;2023-07-29T00:12:43;-18615.69;;;21.91;100.00
24746;BME280;12845;52.042;6.838;2023-07-29T00:15:08;-18613.53;;;21.83;100.00
24746;BME280;12845;52.042;6.838;2023-07-29T00:17:34;-18617.19;;;21.97;100.00
24746;BME280;12845;52.042;6.838;2023-07-29T00:19:59;-18617.19;;;21.97;100.00
24746;BME280;12845;52.042;6.838;2023-07-29T00:22:24;-18617.47;;;21.98;100.00
24746;BME280;12845;52.042;6.838;2023-07-29T00:24:53;-18618.69;;;22.02;100.00
24746;BME280;12845;52.042;6.838;2023-07-29T00:27:23;-18613.78;;;21.84;100.00
24746;BME280;12845;52.042;6.838;2023-07-29T00:29:48;-18613.78;;;21.84;100.00
24746;BME280;12845;52.042;6.838;2023-07-29T00:32:14;-18618.53;;;22.02;100.00
24746;BME280;12845;52.042;6.838;2023-07-29T00:34:39;-18618.28;;;22.01;100.00
24746;BME280;12845;52.042;6.838;2023-07-29T00:37:04;-18615.28;;;21.90;100.00
24746;BME280;12845;52.042;6.838;2023-07-29T00:39:31;-18618.28;;;22.01;100.00
24746;BME280;12845;52.042;6.838;2023-07-29T00:41:57;-18619.50;;;22.05;100.00
24746;BME280;12845;52.042;6.838;2023-07-29T00:44:22;-18622.34;;;22.16;100.00
24746;BME280;12845;52.042;6.838;2023-07-29T00:46:50;-18621.41;;;22.13;100.00
24746;BME280;12845;52.042;6.838;2023-07-29T00:49:15;-18625.34;;;22.27;100.00
24746;BME280;12845;52.042;6.838;2023-07-29T00:51:41;-18618.00;;;22.00;100.00
24746;BME280;12845;52.042;6.838;2023-07-29T00:54:06;-18618.41;;;22.01;100.00
24746;BME280;12845;52.042;6.838;2023-07-29T00:56:32;-18620.31;;;22.08;100.00
24746;BME280;12845;52.042;6.838;2023-07-29T00:58:57;-18620.84;;;22.11;100.00
24746;BME280;12845;52.042;6.838;2023-07-29T01:01:27;-18620.03;;;22.07;100.00
24746;BME280;12845;52.042;6.838;2023-07-29T01:03:52;-18621.53;;;22.13;100.00
24746;BME280;12845;52.042;6.838;2023-07-29T01:09:30;-18623.31;;;22.20;100.00
24746;BME280;12845;52.042;6.838;2023-07-29T01:12:09;-18627.91;;;22.37;100.00
24746;BME280;12845;52.042;6.838;2023-07-29T01:14:57;-18626.44;;;22.32;100.00
24746;BME280;12845;52.042;6.838;2023-07-29T01:17:40;-18626.97;;;22.34;100.00
24746;BME280;12845;52.042;6.838;2023-07-29T01:20:09;-18626.97;;;22.34;100.00
24746;BME280;12845;52.042;6.838;2023-07-29T01:22:36;-18629.97;;;22.45;100.00
24746;BME280;12845;52.042;6.838;2023-07-29T01:25:03;-18629.56;;;22.43;100.00
24746;BME280;12845;52.042;6.838;2023-07-29T01:27:29;-18630.38;;;22.46;100.00
24746;BME280;12845;52.042;6.838;2023-07-29T01:29:55;-18629.69;;;22.44;100.00
24746;BME280;12845;52.042;6.838;2023-07-29T01:32:43;-18629.28;;;22.42;100.00
24746;BME280;12845;52.042;6.838;2023-07-29T01:38:08;-18632.13;;;22.53;100.00
24746;BME280;12845;52.042;6.838;2023-07-29T01:40:35;-18632.13;;;22.53;100.00
24746;BME280;12845;52.042;6.838;2023-07-29T01:43:00;-18629.41;;;22.43;100.00
24746;BME280;12845;52.042;6.838;2023-07-29T01:45:26;-18628.75;;;22.40;100.00
24746;BME280;12845;52.042;6.838;2023-07-29T01:47:52;-18629.28;;;22.42;100.00
24746;BME280;12845;52.042;6.838;2023-07-29T01:50:17;-18632.94;;;22.56;100.00
24746;BME280;12845;52.042;6.838;2023-07-29T01:52:43;-18632.28;;;22.53;100.00
24746;BME280;12845;52.042;6.838;2023-07-29T01:55:08;-18629.00;;;22.41;100.00
24746;BME280;12845;52.042;6.838;2023-07-29T01:57:33;-18628.88;;;22.41;100.00
24746;BME280;12845;52.042;6.838;2023-07-29T01:59:59;-18626.56;;;22.32;100.00
24746;BME280;12845;52.042;6.838;2023-07-29T02:02:24;-18626.69;;;22.33;100.00
24746;BME280;12845;52.042;6.838;2023-07-29T02:04:50;-18627.53;;;22.36;100.00
24746;BME280;12845;52.042;6.838;2023-07-29T02:07:17;-18623.44;;;22.20;100.00
24746;BME280;12845;52.042;6.838;2023-07-29T02:09:44;-18623.44;;;22.20;100.00
24746;BME280;12845;52.042;6.838;2023-07-29T02:12:09;-18623.97;;;22.22;100.00
24746;BME280;12845;52.042;6.838;2023-07-29T02:14:34;-18625.88;;;22.29;100.00
24746;BME280;12845;52.042;6.838;2023-07-29T02:17:00;-18626.97;;;22.34;100.00
24746;BME280;12845;52.042;6.838;2023-07-29T02:19:25;-18626.03;;;22.30;100.00
24746;BME280;12845;52.042;6.838;2023-07-29T02:21:50;-18625.06;;;22.26;100.00
24746;BME280;12845;52.042;6.838;2023-07-29T02:24:16;-18627.53;;;22.36;100.00
24746;BME280;12845;52.042;6.838;2023-07-29T02:26:41;-18621.81;;;22.14;100.00
24746;BME280;12845;52.042;6.838;2023-07-29T02:29:07;-18623.84;;;22.22;100.00
24746;BME280;12845;52.042;6.838;2023-07-29T02:31:32;-18624.81;;;22.25;100.00
24746;BME280;12845;52.042;6.838;2023-07-29T02:34:00;-18617.47;;;21.98;100.00
24746;BME280;12845;52.042;6.838;2023-07-29T02:36:25;-18617.47;;;21.98;100.00
24746;BME280;12845;52.042;6.838;2023-07-29T02:38:50;-18617.31;;;21.97;100.00
24746;BME280;12845;52.042;6.838;2023-07-29T02:41:16;-18617.19;;;21.97;100.00
24746;BME280;12845;52.042;6.838;2023-07-29T02:43:49;-18615.69;;;21.91;100.00
24746;BME280;12845;52.042;6.838;2023-07-29T02:46:14;-18618.69;;;22.02;100.00
24746;BME280;12845;52.042;6.838;2023-07-29T02:48:41;-18615.56;;;21.91;100.00
24746;BME280;12845;52.042;6.838;2023-07-29T02:51:07;-18617.19;;;21.97;100.00
24746;BME280;12845;52.042;6.838;2023-07-29T02:53:32;-18618.41;;;22.01;100.00
24746;BME280;12845;52.042;6.838;2023-07-29T02:55:57;-18620.84;;;22.11;100.00
24746;BME280;12845;52.042;6.838;2023-07-29T02:58:23;-18620.19;;;22.08;100.00
24746;BME280;12845;52.042;6.838;2023-07-29T03:00:48;-18618.81;;;22.03;100.00
24746;BME280;12845;52.042;6.838;2023-07-29T03:03:14;-18619.91;;;22.07;100.00
24746;BME280;12845;52.042;6.838;2023-07-29T03:05:39;-18616.78;;;21.95;100.00
24746;BME280;12845;52.042;6.838;2023-07-29T03:08:05;-18618.13;;;22.00;100.00
24746;BME280;12845;52.042;6.838;2023-07-29T03:10:30;-18618.13;;;22.00;100.00
24746;BME280;12845;52.042;6.838;2023-07-29T03:12:56;-18615.00;;;21.89;100.00
24746;BME280;12845;52.042;6.838;2023-07-29T03:15:25;-18615.97;;;21.92;100.00
24746;BME280;12845;52.042;6.838;2023-07-29T03:17:51;-18616.91;;;21.96;100.00
24746;BME280;12845;52.042;6.838;2023-07-29T03:20:17;-18619.38;;;22.05;100.00
24746;BME280;12845;52.042;6.838;2023-07-29T03:22:46;-18618.94;;;22.03;100.00
24746;BME280;12845;52.042;6.838;2023-07-29T03:25:11;-18618.13;;;22.00;100.00
24746;BME280;12845;52.042;6.838;2023-07-29T03:27:37;-18617.47;;;21.98;100.00
24746;BME280;12845;52.042;6.838;2023-07-29T03:30:03;-18620.19;;;22.08;100.00
24746;BME280;12845;52.042;6.838;2023-07-29T03:32:29;-18618.53;;;22.02;100.00
24746;BME280;12845;52.042;6.838;2023-07-29T03:34:54;-18620.19;;;22.08;100.00
24746;BME280;12845;52.042;6.838;2023-07-29T03:37:20;-18616.91;;;21.96;100.00
24746;BME280;12845;52.042;6.838;2023-07-29T03:39:46;-18615.97;;;21.92;100.00
24746;BME280;12845;52.042;6.838;2023-07-29T03:42:11;-18613.25;;;21.82;100.00
24746;BME280;12845;52.042;6.838;2023-07-29T03:44:37;-18615.69;;;21.91;100.00
24746;BME280;12845;52.042;6.838;2023-07-29T03:47:05;-18615.97;;;21.92;100.00
24746;BME280;12845;52.042;6.838;2023-07-29T03:49:30;-18613.13;;;21.81;100.00
24746;BME280;12845;52.042;6.838;2023-07-29T03:51:56;-18609.84;;;21.69;100.00
24746;BME280;12845;52.042;6.838;2023-07-29T03:54:21;-18609.56;;;21.68;100.00
24746;BME280;12845;52.042;6.838;2023-07-29T03:56:46;-18608.91;;;21.66;100.00
24746;BME280;12845;52.042;6.838;2023-07-29T03:59:12;-18607.81;;;21.61;100.00
24746;BME280;12845;52.042;6.838;2023-07-29T04:01:37;-18607.41;;;21.60;100.00
24746;BME280;12845;52.042;6.838;2023-07-29T04:04:02;-18607.94;;;21.62;100.00
24746;BME280;12845;52.042;6.838;2023-07-29T04:06:28;-18609.56;;;21.68;100.00
24746;BME280;12845;52.042;6.838;2023-07-29T04:08:53;-18609.44;;;21.68;100.00
24746;BME280;12845;52.042;6.838;2023-07-29T04:11:19;-18608.63;;;21.65;100.00
24746;BME280;12845;52.042;6.838;2023-07-29T04:13:45;-18610.13;;;21.70;100.00
24746;BME280;12845;52.042;6.838;2023-07-29T04:16:10;-18609.56;;;21.68;100.00
24746;BME280;12845;52.042;6.838;2023-07-29T04:18:35;-18608.75;;;21.65;100.00
24746;BME280;12845;52.042;6.838;2023-07-29T04:21:01;-18606.59;;;21.57;100.00
24746;BME280;12845;52.042;6.838;2023-07-29T04:23:26;-18606.88;;;21.58;100.00
24746;BME280;12845;52.042;6.838;2023-07-29T04:25:51;-18607.41;;;21.60;100.00
24746;BME280;12845;52.042;6.838;2023-07-29T04:28:17;-18608.22;;;21.63;100.00
24746;BME280;12845;52.042;6.838;2023-07-29T04:30:42;-18607.94;;;21.62;100.00
24746;BME280;12845;52.042;6.838;2023-07-29T04:33:08;-18610.25;;;21.71;100.00
24746;BME280;12845;52.042;6.838;2023-07-29T04:35:33;-18607.13;;;21.59;100.00
24746;BME280;12845;52.042;6.838;2023-07-29T04:37:58;-18608.34;;;21.63;100.00
24746;BME280;12845;52.042;6.838;2023-07-29T04:40:24;-18608.75;;;21.65;100.00
24746;BME280;12845;52.042;6.838;2023-07-29T04:42:50;-18607.00;;;21.58;100.00
24746;BME280;12845;52.042;6.838;2023-07-29T04:45:16;-18604.28;;;21.48;100.00
24746;BME280;12845;52.042;6.838;2023-07-29T04:47:41;-18607.41;;;21.60;100.00
24746;BME280;12845;52.042;6.838;2023-07-29T04:50:07;-18608.75;;;21.65;100.00
24746;BME280;12845;52.042;6.838;2023-07-29T04:52:32;-18610.41;;;21.71;100.00
24746;BME280;12845;52.042;6.838;2023-07-29T04:54:58;-18610.41;;;21.71;100.00
24746;BME280;12845;52.042;6.838;2023-07-29T04:57:23;-18606.59;;;21.57;100.00
24746;BME280;12845;52.042;6.838;2023-07-29T04:59:49;-18605.09;;;21.51;100.00
24746;BME280;12845;52.042;6.838;2023-07-29T05:02:14;-18606.88;;;21.58;100.00
24746;BME280;12845;52.042;6.838;2023-07-29T05:04:40;-18607.69;;;21.61;100.00
24746;BME280;12845;52.042;6.838;2023-07-29T05:07:05;-18609.03;;;21.66;100.00
24746;BME280;12845;52.042;6.838;2023-07-29T05:09:31;-18611.75;;;21.76;100.00
24746;BME280;12845;52.042;6.838;2023-07-29T05:11:56;-18609.31;;;21.67;100.00
24746;BME280;12845;52.042;6.838;2023-07-29T05:14:22;-18611.63;;;21.76;100.00
24746;BME280;12845;52.042;6.838;2023-07-29T05:16:47;-18610.41;;;21.71;100.00
24746;BME280;12845;52.042;6.838;2023-07-29T05:19:13;-18603.59;;;21.46;100.00
24746;BME280;12845;52.042;6.838;2023-07-29T05:21:38;-18604.16;;;21.48;100.00
24746;BME280;12845;52.042;6.838;2023-07-29T05:24:04;-18607.94;;;21.62;100.00
24746;BME280;12845;52.042;6.838;2023-07-29T05:26:29;-18609.19;;;21.67;100.00
24746;BME280;12845;52.042;6.838;2023-07-29T05:28:55;-18611.63;;;21.76;100.00
24746;BME280;12845;52.042;6.838;2023-07-29T05:31:21;-18611.75;;;21.76;100.00
24746;BME280;12845;52.042;6.838;2023-07-29T05:33:47;-18605.38;;;21.52;100.00
24746;BME280;12845;52.042;6.838;2023-07-29T05:36:15;-18606.59;;;21.57;100.00
24746;BME280;12845;52.042;6.838;2023-07-29T05:38:41;-18609.84;;;21.69;100.00
24746;BME280;12845;52.042;6.838;2023-07-29T05:41:06;-18608.50;;;21.64;100.00
24746;BME280;12845;52.042;6.838;2023-07-29T05:43:31;-18609.56;;;21.68;100.00
24746;BME280;12845;52.042;6.838;2023-07-29T05:45:57;-18606.59;;;21.57;100.00
24746;BME280;12845;52.042;6.838;2023-07-29T05:48:22;-18606.88;;;21.58;100.00
24746;BME280;12845;52.042;6.838;2023-07-29T05:50:47;-18609.03;;;21.66;100.00
24746;BME280;12845;52.042;6.838;2023-07-29T05:53:14;-18614.19;;;21.85;100.00
24746;BME280;12845;52.042;6.838;2023-07-29T05:55:40;-18616.25;;;21.93;100.00
24746;BME280;12845;52.042;6.838;2023-07-29T05:58:05;-18615.28;;;21.90;100.00
24746;BME280;12845;52.042;6.838;2023-07-29T06:00:31;-18610.53;;;21.72;100.00
24746;BME280;12845;52.042;6.838;2023-07-29T06:02:56;-18612.16;;;21.78;100.00
24746;BME280;12845;52.042;6.838;2023-07-29T06:05:22;-18612.03;;;21.77;100.00
24746;BME280;12845;52.042;6.838;2023-07-29T06:07:47;-18612.31;;;21.78;100.00
24746;BME280;12845;52.042;6.838;2023-07-29T06:10:14;-18615.28;;;21.90;100.00
24746;BME280;12845;52.042;6.838;2023-07-29T06:12:42;-18620.19;;;22.08;100.00
24746;BME280;12845;52.042;6.838;2023-07-29T06:15:08;-18611.47;;;21.75;100.00
24746;BME280;12845;52.042;6.838;2023-07-29T06:17:34;-18613.94;;;21.84;100.00
24746;BME280;12845;52.042;6.838;2023-07-29T06:19:59;-18612.84;;;21.80;100.00
24746;BME280;12845;52.042;6.838;2023-07-29T06:22:25;-18616.78;;;21.95;100.00
24746;BME280;12845;52.042;6.838;2023-07-29T06:24:50;-18616.66;;;21.95;100.00
24746;BME280;12845;52.042;6.838;2023-07-29T06:27:15;-18610.41;;;21.71;100.00
24746;BME280;12845;52.042;6.838;2023-07-29T06:29:41;-18615.28;;;21.90;100.00
24746;BME280;12845;52.042;6.838;2023-07-29T06:32:06;-18615.28;;;21.90;100.00
24746;BME280;12845;52.042;6.838;2023-07-29T06:34:32;-18611.63;;;21.76;100.00
24746;BME280;12845;52.042;6.838;2023-07-29T06:36:57;-18613.38;;;21.82;100.00
24746;BME280;12845;52.042;6.838;2023-07-29T06:39:22;-18610.66;;;21.72;100.00
24746;BME280;12845;52.042;6.838;2023-07-29T06:41:48;-18610.41;;;21.71;100.00
24746;BME280;12845;52.042;6.838;2023-07-29T06:44:19;-18612.56;;;21.79;100.00
24746;BME280;12845;52.042;6.838;2023-07-29T06:46:45;-18608.09;;;21.62;100.00
24746;BME280;12845;52.042;6.838;2023-07-29T06:49:10;-18609.44;;;21.68;100.00
24746;BME280;12845;52.042;6.838;2023-07-29T06:51:35;-18606.72;;;21.57;100.00
24746;BME280;12845;52.042;6.838;2023-07-29T06:54:02;-18608.50;;;21.64;100.00
24746;BME280;12845;52.042;6.838;2023-07-29T06:56:27;-18609.56;;;21.68;100.00
24746;BME280;12845;52.042;6.838;2023-07-29T06:58:52;-18608.63;;;21.65;100.00
24746;BME280;12845;52.042;6.838;2023-07-29T07:01:18;-18608.50;;;21.64;100.00
24746;BME280;12845;52.042;6.838;2023-07-29T07:03:43;-18607.81;;;21.61;100.00
24746;BME280;12845;52.042;6.838;2023-07-29T07:06:09;-18610.13;;;21.70;100.00
24746;BME280;12845;52.042;6.838;2023-07-29T07:08:34;-18607.28;;;21.59;100.00
24746;BME280;12845;52.042;6.838;2023-07-29T07:10:59;-18612.44;;;21.79;100.00
24746;BME280;12845;52.042;6.838;2023-07-29T07:13:25;-18611.06;;;21.74;100.00
24746;BME280;12845;52.042;6.838;2023-07-29T07:15:50;-18609.31;;;21.67;100.00
24746;BME280;12845;52.042;6.838;2023-07-29T07:18:15;-18612.69;;;21.80;100.00
24746;BME280;12845;52.042;6.838;2023-07-29T07:20:41;-18609.84;;;21.69;100.00
24746;BME280;12845;52.042;6.838;2023-07-29T07:23:06;-18614.47;;;21.86;100.00
24746;BME280;12845;52.042;6.838;2023-07-29T07:25:35;-18615.97;;;21.92;100.00
24746;BME280;12845;52.042;6.838;2023-07-29T07:28:01;-18619.38;;;22.05;100.00
24746;BME280;12845;52.042;6.838;2023-07-29T07:30:29;-18621.00;;;22.11;100.00
24746;BME280;12845;52.042;6.838;2023-07-29T07:32:55;-18624.13;;;22.23;100.00
24746;BME280;12845;52.042;6.838;2023-07-29T07:35:20;-18624.25;;;22.23;100.00
24746;BME280;12845;52.042;6.838;2023-07-29T07:37:45;-18626.03;;;22.30;100.00
24746;BME280;12845;52.042;6.838;2023-07-29T07:40:11;-18626.69;;;22.33;100.00
24746;BME280;12845;52.042;6.838;2023-07-29T07:42:36;-18631.44;;;22.50;100.00
24746;BME280;12845;52.042;6.838;2023-07-29T07:45:02;-18629.97;;;22.45;100.00
24746;BME280;12845;52.042;6.838;2023-07-29T07:47:27;-18624.38;;;22.24;100.00
24746;BME280;12845;52.042;6.838;2023-07-29T07:49:53;-18623.97;;;22.22;100.00
24746;BME280;12845;52.042;6.838;2023-07-29T07:52:18;-18626.84;;;22.33;100.00
24746;BME280;12845;52.042;6.838;2023-07-29T07:54:43;-18628.19;;;22.38;100.00
24746;BME280;12845;52.042;6.838;2023-07-29T07:57:09;-18625.63;;;22.28;100.00
24746;BME280;12845;52.042;6.838;2023-07-29T07:59:34;-18627.91;;;22.37;100.00
24746;BME280;12845;52.042;6.838;2023-07-29T08:01:59;-18635.13;;;22.64;100.00
24746;BME280;12845;52.042;6.838;2023-07-29T08:04:25;-18635.25;;;22.65;100.00
24746;BME280;12845;52.042;6.838;2023-07-29T08:06:51;-18629.00;;;22.41;100.00
24746;BME280;12845;52.042;6.838;2023-07-29T08:09:16;-18629.41;;;22.43;100.00
24746;BME280;12845;52.042;6.838;2023-07-29T08:11:42;-18628.75;;;22.40;100.00
24746;BME280;12845;52.042;6.838;2023-07-29T08:14:07;-18632.81;;;22.56;100.00
24746;BME280;12845;52.042;6.838;2023-07-29T08:16:32;-18640.94;;;22.86;100.00
24746;BME280;12845;52.042;6.838;2023-07-29T08:18:58;-18643.53;;;22.96;100.00
24746;BME280;12845;52.042;6.838;2023-07-29T08:21:23;-18643.00;;;22.94;100.00
24746;BME280;12845;52.042;6.838;2023-07-29T08:23:48;-18638.91;;;22.79;100.00
24746;BME280;12845;52.042;6.838;2023-07-29T08:26:14;-18644.63;;;23.00;100.00
24746;BME280;12845;52.042;6.838;2023-07-29T08:28:50;-18651.00;;;23.24;100.00
24746;BME280;12845;52.042;6.838;2023-07-29T08:31:15;-18651.13;;;23.25;100.00
24746;BME280;12845;52.042;6.838;2023-07-29T08:33:43;-18648.97;;;23.16;100.00
24746;BME280;12845;52.042;6.838;2023-07-29T08:36:08;-18652.75;;;23.31;100.00
24746;BME280;12845;52.042;6.838;2023-07-29T08:38:33;-18654.13;;;23.36;100.00
24746;BME280;12845;52.042;6.838;2023-07-29T08:41:06;-18651.13;;;23.25;100.00
24746;BME280;12845;52.042;6.838;2023-07-29T08:43:38;-18656.56;;;23.45;100.00
24746;BME280;12845;52.042;6.838;2023-07-29T08:46:04;-18657.25;;;23.48;100.00
24746;BME280;12845;52.042;6.838;2023-07-29T08:48:36;-18651.28;;;23.25;100.00
24746;BME280;12845;52.042;6.838;2023-07-29T08:51:05;-18652.22;;;23.29;100.00
24746;BME280;12845;52.042;6.838;2023-07-29T08:53:31;-18656.84;;;23.46;100.00
24746;BME280;12845;52.042;6.838;2023-07-29T08:55:57;-18659.81;;;23.57;100.00
24746;BME280;12845;52.042;6.838;2023-07-29T08:58:23;-18660.91;;;23.61;100.00
24746;BME280;12845;52.042;6.838;2023-07-29T09:00:50;-18661.44;;;23.63;100.00
24746;BME280;12845;52.042;6.838;2023-07-29T09:03:15;-18662.00;;;23.65;100.00
24746;BME280;12845;52.042;6.838;2023-07-29T09:05:41;-18664.84;;;23.76;100.00
24746;BME280;12845;52.042;6.838;2023-07-29T09:08:06;-18662.00;;;23.65;100.00
24746;BME280;12845;52.042;6.838;2023-07-29T09:10:38;-18664.03;;;23.73;100.00
24746;BME280;12845;52.042;6.838;2023-07-29T09:13:04;-18664.84;;;23.76;100.00
24746;BME280;12845;52.042;6.838;2023-07-29T09:15:36;-18664.69;;;23.76;100.00
24746;BME280;12845;52.042;6.838;2023-07-29T09:18:14;-18663.34;;;23.71;100.00
24746;BME280;12845;52.042;6.838;2023-07-29T09:20:40;-18665.91;;;23.80;100.00
24746;BME280;12845;52.042;6.838;2023-07-29T09:23:10;-18661.03;;;23.62;100.00
24746;BME280;12845;52.042;6.838;2023-07-29T09:25:36;-18660.63;;;23.60;100.00
24746;BME280;12845;52.042;6.838;2023-07-29T09:28:11;-18662.38;;;23.67;100.00
24746;BME280;12845;52.042;6.838;2023-07-29T09:30:38;-18661.31;;;23.63;100.00
24746;BME280;12845;52.042;6.838;2023-07-29T09:33:04;-18666.88;;;23.84;100.00
24746;BME280;12845;52.042;6.838;2023-07-29T09:35:32;-18665.38;;;23.78;100.00
24746;BME280;12845;52.042;6.838;2023-07-29T09:37:58;-18667.81;;;23.87;100.00
24746;BME280;12845;52.042;6.838;2023-07-29T09:40:23;-18674.47;;;24.13;100.00
24746;BME280;12845;52.042;6.838;2023-07-29T09:42:54;-18673.38;;;24.08;100.00
24746;BME280;12845;52.042;6.838;2023-07-29T09:45:23;-18672.56;;;24.05;100.00
24746;BME280;12845;52.042;6.838;2023-07-29T09:47:49;-18677.97;;;24.26;100.00
24746;BME280;12845;52.042;6.838;2023-07-29T09:50:16;-18671.34;;;24.01;100.00
24746;BME280;12845;52.042;6.838;2023-07-29T09:52:42;-18675.13;;;24.15;100.00
24746;BME280;12845;52.042;6.838;2023-07-29T09:55:12;-18673.66;;;24.09;100.00
24746;BME280;12845;52.042;6.838;2023-07-29T09:57:40;-18679.19;;;24.30;100.00
24746;BME280;12845;52.042;6.838;2023-07-29T10:00:06;-18681.22;;;24.38;100.00
24746;BME280;12845;52.042;6.838;2023-07-29T10:02:39;-18690.59;;;24.73;100.00
24746;BME280;12845;52.042;6.838;2023-07-29T10:05:06;-18686.25;;;24.57;100.00
24746;BME280;12845;52.042;6.838;2023-07-29T10:07:33;-18692.06;;;24.79;100.00
24746;BME280;12845;52.042;6.838;2023-07-29T10:09:59;-18683.53;;;24.47;100.00
24746;BME280;12845;52.042;6.838;2023-07-29T10:12:27;-18673.38;;;24.08;100.00
24746;BME280;12845;52.042;6.838;2023-07-29T10:14:54;-18670.94;;;23.99;100.00
24746;BME280;12845;52.042;6.838;2023-07-29T10:17:20;-18663.34;;;23.71;100.00
24746;BME280;12845;52.042;6.838;2023-07-29T10:19:46;-18673.66;;;24.09;100.00
24746;BME280;12845;52.042;6.838;2023-07-29T10:22:13;-18674.47;;;24.13;100.00
24746;BME280;12845;52.042;6.838;2023-07-29T10:24:42;-18677.03;;;24.22;100.00
24746;BME280;12845;52.042;6.838;2023-07-29T10:27:09;-18671.47;;;24.01;100.00
24746;BME280;12845;52.042;6.838;2023-07-29T10:29:43;-18672.16;;;24.04;100.00
24746;BME280;12845;52.042;6.838;2023-07-29T10:32:11;-18673.91;;;24.10;100.00
24746;BME280;12845;52.042;6.838;2023-07-29T10:34:37;-18677.97;;;24.26;100.00
24746;BME280;12845;52.042;6.838;2023-07-29T10:37:04;-18689.38;;;24.69;100.00
24746;BME280;12845;52.042;6.838;2023-07-29T10:39:40;-18696.13;;;24.94;100.00
24746;BME280;12845;52.042;6.838;2023-07-29T10:42:06;-18704.41;;;25.26;100.00
24746;BME280;12845;52.042;6.838;2023-07-29T10:47:20;-18702.50;;;25.18;100.00
24746;BME280;12845;52.042;6.838;2023-07-29T10:49:49;-18705.34;;;25.29;100.00
24746;BME280;12845;52.042;6.838;2023-07-29T10:52:16;-18703.44;;;25.22;100.00
24746;BME280;12845;52.042;6.838;2023-07-29T10:54:46;-18696.13;;;24.94;100.00
24746;BME280;12845;52.042;6.838;2023-07-29T10:57:15;-18700.06;;;25.09;97.77
24746;BME280;12845;52.042;6.838;2023-07-29T10:59:42;-18703.44;;;25.22;100.00
24746;BME280;12845;52.042;6.838;2023-07-29T11:02:18;-18702.63;;;25.19;99.36
24746;BME280;12845;52.042;6.838;2023-07-29T11:04:49;-18703.72;;;25.23;100.00
24746;BME280;12845;52.042;6.838;2023-07-29T11:09:54;-18712.94;;;25.58;99.26
24746;BME280;12845;52.042;6.838;2023-07-29T11:12:49;-18718.06;;;25.77;100.00
24746;BME280;12845;52.042;6.838;2023-07-29T11:18:00;-18716.72;;;25.72;92.96
24746;BME280;12845;52.042;6.838;2023-07-29T11:20:35;-18719.41;;;25.82;96.80
24746;BME280;12845;52.042;6.838;2023-07-29T11:23:02;-18718.06;;;25.77;98.37
24746;BME280;12845;52.042;6.838;2023-07-29T11:25:29;-18720.50;;;25.86;93.46
24746;BME280;12845;52.042;6.838;2023-07-29T11:27:57;-18727.00;;;26.11;89.73
24746;BME280;12845;52.042;6.838;2023-07-29T11:30:22;-18717.66;;;25.76;91.56
24746;BME280;12845;52.042;6.838;2023-07-29T11:32:48;-18711.97;;;25.54;92.74
24746;BME280;12845;52.042;6.838;2023-07-29T11:35:18;-18713.19;;;25.59;93.70
24746;BME280;12845;52.042;6.838;2023-07-29T11:37:45;-18713.75;;;25.61;90.77
24746;BME280;12845;52.042;6.838;2023-07-29T11:40:19;-18714.56;;;25.64;93.12
24746;BME280;12845;52.042;6.838;2023-07-29T11:42:46;-18711.84;;;25.54;92.55
24746;BME280;12845;52.042;6.838;2023-07-29T11:45:12;-18715.50;;;25.67;91.95
24746;BME280;12845;52.042;6.838;2023-07-29T11:47:38;-18712.94;;;25.58;94.90
24746;BME280;12845;52.042;6.838;2023-07-29T11:50:08;-18708.06;;;25.39;91.51
24746;BME280;12845;52.042;6.838;2023-07-29T11:52:41;-18715.50;;;25.67;97.97
24746;BME280;12845;52.042;6.838;2023-07-29T11:55:06;-18717.25;;;25.74;94.47
24746;BME280;12845;52.042;6.838;2023-07-29T11:57:37;-18719.41;;;25.82;91.28
24746;BME280;12845;52.042;6.838;2023-07-29T12:00:04;-18719.56;;;25.83;92.96
24746;BME280;12845;52.042;6.838;2023-07-29T12:02:32;-18720.78;;;25.87;93.70
24746;BME280;12845;52.042;6.838;2023-07-29T12:04:58;-18716.84;;;25.73;93.05
24746;BME280;12845;52.042;6.838;2023-07-29T12:07:24;-18729.44;;;26.20;93.28
24746;BME280;12845;52.042;6.838;2023-07-29T12:09:50;-18730.09;;;26.23;88.19
24746;BME280;12845;52.042;6.838;2023-07-29T12:12:16;-18731.59;;;26.28;91.33
24746;BME280;12845;52.042;6.838;2023-07-29T12:14:45;-18726.84;;;26.10;94.31
24746;BME280;12845;52.042;6.838;2023-07-29T12:17:11;-18728.06;;;26.15;92.41
24746;BME280;12845;52.042;6.838;2023-07-29T12:19:38;-18716.56;;;25.72;93.17
24746;BME280;12845;52.042;6.838;2023-07-29T12:22:05;-18723.06;;;25.96;93.21
24746;BME280;12845;52.042;6.838;2023-07-29T12:24:32;-18722.66;;;25.95;90.51
24746;BME280;12845;52.042;6.838;2023-07-29T12:26:58;-18715.91;;;25.69;94.99
24746;BME280;12845;52.042;6.838;2023-07-29T12:29:23;-18718.88;;;25.80;92.66
24746;BME280;12845;52.042;6.838;2023-07-29T12:31:49;-18724.69;;;26.02;90.79
24746;BME280;12845;52.042;6.838;2023-07-29T12:34:21;-18722.81;;;25.95;91.56
24746;BME280;12845;52.042;6.838;2023-07-29T12:36:49;-18726.31;;;26.08;95.20
24746;BME280;12845;52.042;6.838;2023-07-29T12:39:29;-18730.66;;;26.25;88.98
24746;BME280;12845;52.042;6.838;2023-07-29T12:41:59;-18733.47;;;26.36;89.41
24746;BME280;12845;52.042;6.838;2023-07-29T12:44:42;-18727.25;;;26.12;87.52
24746;BME280;12845;52.042;6.838;2023-07-29T12:47:08;-18726.72;;;26.10;88.23
24746;BME280;12845;52.042;6.838;2023-07-29T12:49:34;-18728.22;;;26.16;94.63
24746;BME280;12845;52.042;6.838;2023-07-29T12:52:00;-18725.25;;;26.04;92.76